sensor_id;sensor_type;location;lat;lon;timestamp;P1;durP1;ratioP1;P2;durP2;ratioP2
55497;SDS011;41357;52.806;18.268;2023-04-15T00:00:28;10.60;;;6.78;;
55497;SDS011;41357;52.806;18.268;2023-04-15T00:02:54;10.30;;;7.03;;
55497;SDS011;41357;52.806;18.268;2023-04-15T00:05:20;12.43;;;7.28;;
55497;SDS011;41357;52.806;18.268;2023-04-15T00:07:46;11.35;;;6.93;;
55497;SDS011;41357;52.806;18.268;2023-04-15T00:10:12;10.63;;;6.80;;
55497;SDS011;41357;52.806;18.268;2023-04-15T00:12:38;12.18;;;7.40;;
55497;SDS011;41357;52.806;18.268;2023-04-15T00:15:05;12.65;;;7.82;;
55497;SDS011;41357;52.806;18.268;2023-04-15T00:17:32;12.00;;;7.45;;
55497;SDS011;41357;52.806;18.268;2023-04-15T00:19:58;11.60;;;7.25;;
55497;SDS011;41357;52.806;18.268;2023-04-15T00:22:25;12.02;;;7.30;;
55497;SDS011;41357;52.806;18.268;2023-04-15T00:24:54;16.33;;;8.63;;
55497;SDS011;41357;52.806;18.268;2023-04-15T00:27:21;14.75;;;7.85;;
55497;SDS011;41357;52.806;18.268;2023-04-15T00:29:47;12.98;;;8.20;;
55497;SDS011;41357;52.806;18.268;2023-04-15T00:32:13;14.27;;;8.13;;
55497;SDS011;41357;52.806;18.268;2023-04-15T00:34:40;12.65;;;6.95;;
55497;SDS011;41357;52.806;18.268;2023-04-15T00:37:06;14.43;;;7.72;;
55497;SDS011;41357;52.806;18.268;2023-04-15T00:39:32;13.75;;;8.15;;
55497;SDS011;41357;52.806;18.268;2023-04-15T00:41:59;17.92;;;8.77;;
55497;SDS011;41357;52.806;18.268;2023-04-15T00:44:25;13.80;;;8.05;;
55497;SDS011;41357;52.806;18.268;2023-04-15T00:46:52;12.45;;;7.60;;
55497;SDS011;41357;52.806;18.268;2023-04-15T00:49:18;11.98;;;6.80;;
55497;SDS011;41357;52.806;18.268;2023-04-15T00:51:45;12.30;;;8.00;;
55497;SDS011;41357;52.806;18.268;2023-04-15T00:54:11;15.25;;;7.97;;
55497;SDS011;41357;52.806;18.268;2023-04-15T00:56:37;11.93;;;7.03;;
55497;SDS011;41357;52.806;18.268;2023-04-15T00:59:04;11.85;;;6.85;;
55497;SDS011;41357;52.806;18.268;2023-04-15T01:01:32;12.20;;;7.45;;
55497;SDS011;41357;52.806;18.268;2023-04-15T01:03:59;13.32;;;7.43;;
55497;SDS011;41357;52.806;18.268;2023-04-15T01:06:25;10.80;;;6.88;;
55497;SDS011;41357;52.806;18.268;2023-04-15T01:08:53;12.65;;;7.50;;
55497;SDS011;41357;52.806;18.268;2023-04-15T01:11:19;12.32;;;7.35;;
55497;SDS011;41357;52.806;18.268;2023-04-15T01:13:45;13.23;;;8.02;;
55497;SDS011;41357;52.806;18.268;2023-04-15T01:16:12;10.77;;;7.15;;
55497;SDS011;41357;52.806;18.268;2023-04-15T01:18:39;13.32;;;7.32;;
55497;SDS011;41357;52.806;18.268;2023-04-15T01:21:05;11.40;;;7.15;;
55497;SDS011;41357;52.806;18.268;2023-04-15T01:23:32;12.85;;;7.82;;
55497;SDS011;41357;52.806;18.268;2023-04-15T01:25:58;15.57;;;7.40;;
55497;SDS011;41357;52.806;18.268;2023-04-15T01:28:24;12.30;;;7.57;;
55497;SDS011;41357;52.806;18.268;2023-04-15T01:31:04;11.50;;;6.90;;
55497;SDS011;41357;52.806;18.268;2023-04-15T01:33:31;13.15;;;7.05;;
55497;SDS011;41357;52.806;18.268;2023-04-15T01:35:57;14.63;;;7.70;;
55497;SDS011;41357;52.806;18.268;2023-04-15T01:38:24;13.27;;;7.68;;
55497;SDS011;41357;52.806;18.268;2023-04-15T01:40:50;11.80;;;7.10;;
55497;SDS011;41357;52.806;18.268;2023-04-15T01:43:17;13.85;;;7.65;;
55497;SDS011;41357;52.806;18.268;2023-04-15T01:45:43;12.50;;;7.57;;
55497;SDS011;41357;52.806;18.268;2023-04-15T01:48:09;11.88;;;6.97;;
55497;SDS011;41357;52.806;18.268;2023-04-15T01:50:36;15.73;;;7.10;;
55497;SDS011;41357;52.806;18.268;2023-04-15T01:53:02;12.82;;;7.78;;
55497;SDS011;41357;52.806;18.268;2023-04-15T01:55:29;12.90;;;7.22;;
55497;SDS011;41357;52.806;18.268;2023-04-15T01:57:55;16.15;;;7.75;;
55497;SDS011;41357;52.806;18.268;2023-04-15T02:00:21;13.52;;;7.32;;
55497;SDS011;41357;52.806;18.268;2023-04-15T02:02:48;14.07;;;7.90;;
55497;SDS011;41357;52.806;18.268;2023-04-15T02:05:14;12.70;;;6.93;;
55497;SDS011;41357;52.806;18.268;2023-04-15T02:07:44;14.32;;;7.05;;
55497;SDS011;41357;52.806;18.268;2023-04-15T02:10:10;10.13;;;6.97;;
55497;SDS011;41357;52.806;18.268;2023-04-15T02:12:40;10.88;;;7.30;;
55497;SDS011;41357;52.806;18.268;2023-04-15T02:15:06;14.68;;;7.53;;
55497;SDS011;41357;52.806;18.268;2023-04-15T02:17:36;14.00;;;7.72;;
55497;SDS011;41357;52.806;18.268;2023-04-15T02:20:02;11.02;;;6.55;;
55497;SDS011;41357;52.806;18.268;2023-04-15T02:22:32;12.93;;;7.50;;
55497;SDS011;41357;52.806;18.268;2023-04-15T02:24:59;13.05;;;7.43;;
55497;SDS011;41357;52.806;18.268;2023-04-15T02:27:25;9.85;;;6.80;;
55497;SDS011;41357;52.806;18.268;2023-04-15T02:29:52;13.63;;;7.32;;
55497;SDS011;41357;52.806;18.268;2023-04-15T02:32:18;10.73;;;6.57;;
55497;SDS011;41357;52.806;18.268;2023-04-15T02:34:47;12.90;;;7.53;;
55497;SDS011;41357;52.806;18.268;2023-04-15T02:37:13;11.05;;;7.13;;
55497;SDS011;41357;52.806;18.268;2023-04-15T02:39:40;14.68;;;7.50;;
55497;SDS011;41357;52.806;18.268;2023-04-15T02:42:06;12.13;;;7.00;;
55497;SDS011;41357;52.806;18.268;2023-04-15T02:44:32;12.38;;;7.35;;
55497;SDS011;41357;52.806;18.268;2023-04-15T02:47:00;10.82;;;6.72;;
55497;SDS011;41357;52.806;18.268;2023-04-15T02:49:27;12.50;;;7.65;;
55497;SDS011;41357;52.806;18.268;2023-04-15T02:51:55;13.35;;;7.50;;
55497;SDS011;41357;52.806;18.268;2023-04-15T02:54:22;14.75;;;7.20;;
55497;SDS011;41357;52.806;18.268;2023-04-15T02:56:48;11.23;;;7.35;;
55497;SDS011;41357;52.806;18.268;2023-04-15T02:59:14;13.05;;;6.50;;
55497;SDS011;41357;52.806;18.268;2023-04-15T03:01:41;12.70;;;7.15;;
55497;SDS011;41357;52.806;18.268;2023-04-15T03:04:07;12.23;;;7.38;;
55497;SDS011;41357;52.806;18.268;2023-04-15T03:06:34;11.73;;;6.93;;
55497;SDS011;41357;52.806;18.268;2023-04-15T03:09:00;12.63;;;6.95;;
55497;SDS011;41357;52.806;18.268;2023-04-15T03:11:27;12.52;;;7.18;;
55497;SDS011;41357;52.806;18.268;2023-04-15T03:13:53;11.30;;;7.20;;
55497;SDS011;41357;52.806;18.268;2023-04-15T03:16:20;10.70;;;6.82;;
55497;SDS011;41357;52.806;18.268;2023-04-15T03:18:46;11.98;;;7.13;;
55497;SDS011;41357;52.806;18.268;2023-04-15T03:21:12;10.85;;;6.57;;
55497;SDS011;41357;52.806;18.268;2023-04-15T03:23:38;10.48;;;6.57;;
55497;SDS011;41357;52.806;18.268;2023-04-15T03:26:04;9.93;;;6.85;;
55497;SDS011;41357;52.806;18.268;2023-04-15T03:28:30;11.38;;;6.90;;
55497;SDS011;41357;52.806;18.268;2023-04-15T03:30:57;9.65;;;6.65;;
55497;SDS011;41357;52.806;18.268;2023-04-15T03:33:23;10.55;;;7.25;;
55497;SDS011;41357;52.806;18.268;2023-04-15T03:35:50;17.15;;;7.32;;
55497;SDS011;41357;52.806;18.268;2023-04-15T03:38:16;10.90;;;7.07;;
55497;SDS011;41357;52.806;18.268;2023-04-15T03:40:42;11.48;;;7.18;;
55497;SDS011;41357;52.806;18.268;2023-04-15T03:43:08;12.27;;;7.95;;
55497;SDS011;41357;52.806;18.268;2023-04-15T03:45:35;10.75;;;7.18;;
55497;SDS011;41357;52.806;18.268;2023-04-15T03:48:01;12.10;;;6.65;;
55497;SDS011;41357;52.806;18.268;2023-04-15T03:50:27;12.63;;;7.85;;
55497;SDS011;41357;52.806;18.268;2023-04-15T03:52:53;10.40;;;7.22;;
55497;SDS011;41357;52.806;18.268;2023-04-15T03:55:20;11.57;;;7.78;;
55497;SDS011;41357;52.806;18.268;2023-04-15T03:57:46;10.95;;;7.05;;
55497;SDS011;41357;52.806;18.268;2023-04-15T04:00:12;13.13;;;6.75;;
55497;SDS011;41357;52.806;18.268;2023-04-15T04:02:38;10.65;;;7.30;;
55497;SDS011;41357;52.806;18.268;2023-04-15T04:05:04;11.82;;;7.25;;
55497;SDS011;41357;52.806;18.268;2023-04-15T04:07:31;13.68;;;7.95;;
55497;SDS011;41357;52.806;18.268;2023-04-15T04:09:57;12.50;;;7.38;;
55497;SDS011;41357;52.806;18.268;2023-04-15T04:12:23;13.40;;;7.72;;
55497;SDS011;41357;52.806;18.268;2023-04-15T04:14:49;11.90;;;8.15;;
55497;SDS011;41357;52.806;18.268;2023-04-15T04:17:15;13.18;;;8.50;;
55497;SDS011;41357;52.806;18.268;2023-04-15T04:19:41;11.82;;;7.53;;
55497;SDS011;41357;52.806;18.268;2023-04-15T04:22:07;12.63;;;7.25;;
55497;SDS011;41357;52.806;18.268;2023-04-15T04:24:33;12.32;;;8.40;;
55497;SDS011;41357;52.806;18.268;2023-04-15T04:27:00;11.32;;;7.40;;
55497;SDS011;41357;52.806;18.268;2023-04-15T04:29:26;11.23;;;7.63;;
55497;SDS011;41357;52.806;18.268;2023-04-15T04:31:52;14.18;;;8.25;;
55497;SDS011;41357;52.806;18.268;2023-04-15T04:34:18;11.95;;;8.63;;
55497;SDS011;41357;52.806;18.268;2023-04-15T04:36:44;11.98;;;7.55;;
55497;SDS011;41357;52.806;18.268;2023-04-15T04:39:10;11.00;;;7.75;;
55497;SDS011;41357;52.806;18.268;2023-04-15T04:41:36;14.30;;;8.32;;
55497;SDS011;41357;52.806;18.268;2023-04-15T04:44:02;14.98;;;8.38;;
55497;SDS011;41357;52.806;18.268;2023-04-15T04:46:28;12.75;;;8.60;;
55497;SDS011;41357;52.806;18.268;2023-04-15T04:48:55;14.80;;;9.23;;
55497;SDS011;41357;52.806;18.268;2023-04-15T04:51:21;14.95;;;8.23;;
55497;SDS011;41357;52.806;18.268;2023-04-15T04:53:47;18.55;;;9.60;;
55497;SDS011;41357;52.806;18.268;2023-04-15T04:56:13;13.15;;;8.73;;
55497;SDS011;41357;52.806;18.268;2023-04-15T04:58:39;14.45;;;8.52;;
55497;SDS011;41357;52.806;18.268;2023-04-15T05:01:06;16.10;;;8.93;;
55497;SDS011;41357;52.806;18.268;2023-04-15T05:03:33;12.25;;;8.02;;
55497;SDS011;41357;52.806;18.268;2023-04-15T05:05:59;14.35;;;8.55;;
55497;SDS011;41357;52.806;18.268;2023-04-15T05:08:27;12.32;;;8.98;;
55497;SDS011;41357;52.806;18.268;2023-04-15T05:10:53;13.98;;;9.50;;
55497;SDS011;41357;52.806;18.268;2023-04-15T05:13:19;14.52;;;10.10;;
55497;SDS011;41357;52.806;18.268;2023-04-15T05:15:45;15.27;;;9.13;;
55497;SDS011;41357;52.806;18.268;2023-04-15T05:18:11;13.93;;;9.30;;
55497;SDS011;41357;52.806;18.268;2023-04-15T05:20:37;16.63;;;9.82;;
55497;SDS011;41357;52.806;18.268;2023-04-15T05:23:03;14.43;;;9.55;;
55497;SDS011;41357;52.806;18.268;2023-04-15T05:25:30;12.55;;;8.90;;
55497;SDS011;41357;52.806;18.268;2023-04-15T05:27:56;14.07;;;9.40;;
55497;SDS011;41357;52.806;18.268;2023-04-15T05:30:22;16.95;;;9.02;;
55497;SDS011;41357;52.806;18.268;2023-04-15T05:32:48;15.35;;;9.65;;
55497;SDS011;41357;52.806;18.268;2023-04-15T05:35:14;14.60;;;9.77;;
55497;SDS011;41357;52.806;18.268;2023-04-15T05:37:41;18.67;;;10.45;;
55497;SDS011;41357;52.806;18.268;2023-04-15T05:40:07;18.30;;;10.48;;
55497;SDS011;41357;52.806;18.268;2023-04-15T05:42:34;17.33;;;10.65;;
55497;SDS011;41357;52.806;18.268;2023-04-15T05:45:01;17.05;;;11.20;;
55497;SDS011;41357;52.806;18.268;2023-04-15T05:47:29;20.98;;;11.27;;
55497;SDS011;41357;52.806;18.268;2023-04-15T05:49:55;24.77;;;13.75;;
55497;SDS011;41357;52.806;18.268;2023-04-15T05:52:23;23.30;;;12.73;;
55497;SDS011;41357;52.806;18.268;2023-04-15T05:54:49;20.63;;;12.13;;
55497;SDS011;41357;52.806;18.268;2023-04-15T05:57:15;24.30;;;12.93;;
55497;SDS011;41357;52.806;18.268;2023-04-15T05:59:41;23.90;;;13.98;;
55497;SDS011;41357;52.806;18.268;2023-04-15T06:02:08;23.88;;;12.80;;
55497;SDS011;41357;52.806;18.268;2023-04-15T06:04:35;22.20;;;13.43;;
55497;SDS011;41357;52.806;18.268;2023-04-15T06:07:01;21.85;;;13.75;;
55497;SDS011;41357;52.806;18.268;2023-04-15T06:09:28;22.55;;;14.13;;
55497;SDS011;41357;52.806;18.268;2023-04-15T06:11:54;29.55;;;15.55;;
55497;SDS011;41357;52.806;18.268;2023-04-15T06:14:21;25.75;;;14.68;;
55497;SDS011;41357;52.806;18.268;2023-04-15T06:16:48;24.55;;;13.98;;
55497;SDS011;41357;52.806;18.268;2023-04-15T06:19:14;28.85;;;14.55;;
55497;SDS011;41357;52.806;18.268;2023-04-15T06:21:40;22.75;;;14.00;;
55497;SDS011;41357;52.806;18.268;2023-04-15T06:24:06;31.08;;;15.02;;
55497;SDS011;41357;52.806;18.268;2023-04-15T06:26:32;25.83;;;15.65;;
55497;SDS011;41357;52.806;18.268;2023-04-15T06:28:58;25.60;;;13.85;;
55497;SDS011;41357;52.806;18.268;2023-04-15T06:31:24;26.17;;;15.65;;
55497;SDS011;41357;52.806;18.268;2023-04-15T06:33:50;28.35;;;16.10;;
55497;SDS011;41357;52.806;18.268;2023-04-15T06:36:16;33.50;;;15.02;;
55497;SDS011;41357;52.806;18.268;2023-04-15T06:38:43;26.52;;;15.27;;
55497;SDS011;41357;52.806;18.268;2023-04-15T06:41:09;27.60;;;15.30;;
55497;SDS011;41357;52.806;18.268;2023-04-15T06:43:35;25.25;;;14.27;;
55497;SDS011;41357;52.806;18.268;2023-04-15T06:46:01;29.92;;;15.30;;
55497;SDS011;41357;52.806;18.268;2023-04-15T06:48:27;29.25;;;16.45;;
55497;SDS011;41357;52.806;18.268;2023-04-15T06:50:53;28.88;;;16.83;;
55497;SDS011;41357;52.806;18.268;2023-04-15T06:53:20;26.98;;;15.35;;
55497;SDS011;41357;52.806;18.268;2023-04-15T06:55:46;28.55;;;15.93;;
55497;SDS011;41357;52.806;18.268;2023-04-15T06:58:13;32.65;;;16.63;;
55497;SDS011;41357;52.806;18.268;2023-04-15T07:00:39;31.75;;;17.17;;
55497;SDS011;41357;52.806;18.268;2023-04-15T07:03:05;32.28;;;16.42;;
55497;SDS011;41357;52.806;18.268;2023-04-15T07:05:34;32.42;;;18.40;;
55497;SDS011;41357;52.806;18.268;2023-04-15T07:08:00;31.02;;;17.30;;
55497;SDS011;41357;52.806;18.268;2023-04-15T07:10:26;33.72;;;16.35;;
55497;SDS011;41357;52.806;18.268;2023-04-15T07:12:52;29.48;;;18.23;;
55497;SDS011;41357;52.806;18.268;2023-04-15T07:15:19;28.98;;;16.40;;
55497;SDS011;41357;52.806;18.268;2023-04-15T07:17:45;32.83;;;17.88;;
55497;SDS011;41357;52.806;18.268;2023-04-15T07:20:11;25.20;;;15.40;;
55497;SDS011;41357;52.806;18.268;2023-04-15T07:22:38;29.10;;;18.08;;
55497;SDS011;41357;52.806;18.268;2023-04-15T07:25:04;33.65;;;18.73;;
55497;SDS011;41357;52.806;18.268;2023-04-15T07:27:30;32.00;;;17.00;;
55497;SDS011;41357;52.806;18.268;2023-04-15T07:29:56;29.40;;;18.48;;
55497;SDS011;41357;52.806;18.268;2023-04-15T07:32:22;33.25;;;17.92;;
55497;SDS011;41357;52.806;18.268;2023-04-15T07:34:48;28.50;;;16.42;;
55497;SDS011;41357;52.806;18.268;2023-04-15T07:37:14;32.40;;;17.27;;
55497;SDS011;41357;52.806;18.268;2023-04-15T07:39:41;31.10;;;15.98;;
55497;SDS011;41357;52.806;18.268;2023-04-15T07:42:07;33.35;;;16.25;;
55497;SDS011;41357;52.806;18.268;2023-04-15T07:44:33;35.33;;;19.25;;
55497;SDS011;41357;52.806;18.268;2023-04-15T07:47:01;37.17;;;18.58;;
55497;SDS011;41357;52.806;18.268;2023-04-15T07:49:28;31.92;;;18.02;;
55497;SDS011;41357;52.806;18.268;2023-04-15T07:51:54;34.95;;;18.90;;
55497;SDS011;41357;52.806;18.268;2023-04-15T07:54:21;36.15;;;17.85;;
55497;SDS011;41357;52.806;18.268;2023-04-15T07:56:47;33.80;;;17.55;;
55497;SDS011;41357;52.806;18.268;2023-04-15T07:59:14;32.15;;;16.85;;
55497;SDS011;41357;52.806;18.268;2023-04-15T08:01:42;31.90;;;16.83;;
55497;SDS011;41357;52.806;18.268;2023-04-15T08:04:09;32.80;;;17.05;;
55497;SDS011;41357;52.806;18.268;2023-04-15T08:06:35;31.20;;;16.90;;
55497;SDS011;41357;52.806;18.268;2023-04-15T08:09:03;28.38;;;16.40;;
55497;SDS011;41357;52.806;18.268;2023-04-15T08:11:30;27.95;;;16.10;;
55497;SDS011;41357;52.806;18.268;2023-04-15T08:13:56;26.42;;;15.38;;
55497;SDS011;41357;52.806;18.268;2023-04-15T08:16:23;26.67;;;17.08;;
55497;SDS011;41357;52.806;18.268;2023-04-15T08:18:51;26.73;;;15.43;;
55497;SDS011;41357;52.806;18.268;2023-04-15T08:21:18;27.38;;;16.60;;
55497;SDS011;41357;52.806;18.268;2023-04-15T08:23:45;29.65;;;16.63;;
55497;SDS011;41357;52.806;18.268;2023-04-15T08:26:12;28.98;;;16.80;;
55497;SDS011;41357;52.806;18.268;2023-04-15T08:28:38;28.65;;;16.02;;
55497;SDS011;41357;52.806;18.268;2023-04-15T08:31:05;29.63;;;16.88;;
55497;SDS011;41357;52.806;18.268;2023-04-15T08:33:31;30.70;;;15.82;;
55497;SDS011;41357;52.806;18.268;2023-04-15T08:35:57;24.80;;;16.02;;
55497;SDS011;41357;52.806;18.268;2023-04-15T08:38:23;23.38;;;14.10;;
55497;SDS011;41357;52.806;18.268;2023-04-15T08:40:50;26.35;;;13.82;;
55497;SDS011;41357;52.806;18.268;2023-04-15T08:43:23;20.70;;;14.02;;
55497;SDS011;41357;52.806;18.268;2023-04-15T08:45:53;25.10;;;15.75;;
55497;SDS011;41357;52.806;18.268;2023-04-15T08:48:19;25.52;;;15.38;;
55497;SDS011;41357;52.806;18.268;2023-04-15T08:50:46;23.67;;;15.27;;
55497;SDS011;41357;52.806;18.268;2023-04-15T08:53:13;25.10;;;14.10;;
55497;SDS011;41357;52.806;18.268;2023-04-15T08:55:43;19.55;;;13.35;;
55497;SDS011;41357;52.806;18.268;2023-04-15T08:58:10;24.83;;;13.48;;
55497;SDS011;41357;52.806;18.268;2023-04-15T09:00:36;24.77;;;14.60;;
55497;SDS011;41357;52.806;18.268;2023-04-15T09:03:06;23.60;;;12.90;;
55497;SDS011;41357;52.806;18.268;2023-04-15T09:05:33;19.67;;;12.15;;
55497;SDS011;41357;52.806;18.268;2023-04-15T09:07:59;20.58;;;12.68;;
55497;SDS011;41357;52.806;18.268;2023-04-15T09:10:26;20.75;;;14.07;;
55497;SDS011;41357;52.806;18.268;2023-04-15T09:12:52;21.00;;;12.48;;
55497;SDS011;41357;52.806;18.268;2023-04-15T09:15:18;18.23;;;11.63;;
55497;SDS011;41357;52.806;18.268;2023-04-15T09:17:45;19.23;;;12.60;;
55497;SDS011;41357;52.806;18.268;2023-04-15T09:20:13;22.35;;;12.43;;
55497;SDS011;41357;52.806;18.268;2023-04-15T09:22:40;18.65;;;11.95;;
55497;SDS011;41357;52.806;18.268;2023-04-15T09:28:03;47.83;;;28.05;;
55497;SDS011;41357;52.806;18.268;2023-04-15T09:30:29;46.80;;;27.23;;
55497;SDS011;41357;52.806;18.268;2023-04-15T09:32:59;20.27;;;13.60;;
55497;SDS011;41357;52.806;18.268;2023-04-15T09:35:26;34.00;;;17.92;;
55497;SDS011;41357;52.806;18.268;2023-04-15T09:38:00;22.33;;;14.20;;
55497;SDS011;41357;52.806;18.268;2023-04-15T09:40:44;36.05;;;22.42;;
55497;SDS011;41357;52.806;18.268;2023-04-15T09:43:11;25.63;;;14.73;;
55497;SDS011;41357;52.806;18.268;2023-04-15T09:45:37;24.55;;;14.85;;
55497;SDS011;41357;52.806;18.268;2023-04-15T09:48:19;62.20;;;35.22;;
55497;SDS011;41357;52.806;18.268;2023-04-15T09:50:46;21.35;;;14.98;;
55497;SDS011;41357;52.806;18.268;2023-04-15T09:53:17;30.17;;;19.70;;
55497;SDS011;41357;52.806;18.268;2023-04-15T09:55:44;21.02;;;13.13;;
55497;SDS011;41357;52.806;18.268;2023-04-15T09:58:17;21.55;;;15.13;;
55497;SDS011;41357;52.806;18.268;2023-04-15T10:00:45;18.83;;;11.68;;
55497;SDS011;41357;52.806;18.268;2023-04-15T10:03:14;24.67;;;13.13;;
55497;SDS011;41357;52.806;18.268;2023-04-15T10:05:43;21.77;;;11.77;;
55497;SDS011;41357;52.806;18.268;2023-04-15T10:08:10;24.25;;;12.63;;
55497;SDS011;41357;52.806;18.268;2023-04-15T10:10:37;21.13;;;11.95;;
55497;SDS011;41357;52.806;18.268;2023-04-15T10:13:03;16.23;;;10.60;;
55497;SDS011;41357;52.806;18.268;2023-04-15T10:15:30;20.02;;;11.93;;
55497;SDS011;41357;52.806;18.268;2023-04-15T10:17:57;19.77;;;12.30;;
55497;SDS011;41357;52.806;18.268;2023-04-15T10:20:24;19.88;;;13.23;;
55497;SDS011;41357;52.806;18.268;2023-04-15T10:22:51;21.85;;;13.93;;
55497;SDS011;41357;52.806;18.268;2023-04-15T10:25:18;21.05;;;13.90;;
55497;SDS011;41357;52.806;18.268;2023-04-15T10:27:44;22.25;;;14.05;;
55497;SDS011;41357;52.806;18.268;2023-04-15T10:30:12;20.77;;;12.55;;
55497;SDS011;41357;52.806;18.268;2023-04-15T10:32:39;22.67;;;14.93;;
55497;SDS011;41357;52.806;18.268;2023-04-15T10:35:05;25.25;;;16.40;;
55497;SDS011;41357;52.806;18.268;2023-04-15T10:37:36;21.48;;;12.48;;
55497;SDS011;41357;52.806;18.268;2023-04-15T10:43:01;22.45;;;13.77;;
55497;SDS011;41357;52.806;18.268;2023-04-15T10:45:43;23.10;;;13.82;;
55497;SDS011;41357;52.806;18.268;2023-04-15T10:48:10;21.10;;;12.48;;
55497;SDS011;41357;52.806;18.268;2023-04-15T10:50:42;19.55;;;11.95;;
55497;SDS011;41357;52.806;18.268;2023-04-15T10:53:27;21.85;;;12.40;;
55497;SDS011;41357;52.806;18.268;2023-04-15T10:55:53;22.08;;;12.02;;
55497;SDS011;41357;52.806;18.268;2023-04-15T10:58:22;22.98;;;12.85;;
55497;SDS011;41357;52.806;18.268;2023-04-15T11:00:49;17.63;;;11.18;;
55497;SDS011;41357;52.806;18.268;2023-04-15T11:06:03;18.17;;;10.00;;
55497;SDS011;41357;52.806;18.268;2023-04-15T11:11:15;18.58;;;11.15;;
55497;SDS011;41357;52.806;18.268;2023-04-15T11:13:48;19.80;;;12.35;;
55497;SDS011;41357;52.806;18.268;2023-04-15T11:16:14;18.40;;;10.85;;
55497;SDS011;41357;52.806;18.268;2023-04-15T11:18:41;17.10;;;11.52;;
55497;SDS011;41357;52.806;18.268;2023-04-15T11:21:07;18.20;;;10.98;;
55497;SDS011;41357;52.806;18.268;2023-04-15T11:23:34;15.35;;;10.02;;
55497;SDS011;41357;52.806;18.268;2023-04-15T11:26:01;25.83;;;12.73;;
55497;SDS011;41357;52.806;18.268;2023-04-15T11:28:30;22.13;;;11.38;;
55497;SDS011;41357;52.806;18.268;2023-04-15T11:30:57;16.90;;;9.98;;
55497;SDS011;41357;52.806;18.268;2023-04-15T11:33:24;17.48;;;10.95;;
55497;SDS011;41357;52.806;18.268;2023-04-15T11:35:51;28.88;;;14.93;;
55497;SDS011;41357;52.806;18.268;2023-04-15T11:38:20;19.55;;;11.70;;
55497;SDS011;41357;52.806;18.268;2023-04-15T11:40:46;14.23;;;9.73;;
55497;SDS011;41357;52.806;18.268;2023-04-15T11:43:17;16.42;;;9.98;;
55497;SDS011;41357;52.806;18.268;2023-04-15T11:45:53;19.65;;;9.85;;
55497;SDS011;41357;52.806;18.268;2023-04-15T11:48:27;17.40;;;7.82;;
55497;SDS011;41357;52.806;18.268;2023-04-15T11:50:58;11.88;;;8.73;;
55497;SDS011;41357;52.806;18.268;2023-04-15T11:53:25;17.45;;;8.27;;
55497;SDS011;41357;52.806;18.268;2023-04-15T11:56:01;14.23;;;8.57;;
55497;SDS011;41357;52.806;18.268;2023-04-15T11:58:27;14.18;;;8.73;;
55497;SDS011;41357;52.806;18.268;2023-04-15T12:00:57;14.32;;;9.00;;
55497;SDS011;41357;52.806;18.268;2023-04-15T12:03:24;14.95;;;9.55;;
55497;SDS011;41357;52.806;18.268;2023-04-15T12:06:04;17.05;;;8.95;;
55497;SDS011;41357;52.806;18.268;2023-04-15T12:11:16;17.38;;;9.38;;
55497;SDS011;41357;52.806;18.268;2023-04-15T12:13:46;19.23;;;8.77;;
55497;SDS011;41357;52.806;18.268;2023-04-15T12:16:17;12.43;;;8.20;;
55497;SDS011;41357;52.806;18.268;2023-04-15T12:18:46;14.50;;;8.93;;
55497;SDS011;41357;52.806;18.268;2023-04-15T12:21:13;17.25;;;8.85;;
55497;SDS011;41357;52.806;18.268;2023-04-15T12:23:46;16.08;;;10.73;;
55497;SDS011;41357;52.806;18.268;2023-04-15T12:26:13;14.30;;;9.75;;
55497;SDS011;41357;52.806;18.268;2023-04-15T12:28:40;13.63;;;8.68;;
55497;SDS011;41357;52.806;18.268;2023-04-15T12:31:09;12.02;;;8.45;;
55497;SDS011;41357;52.806;18.268;2023-04-15T12:33:36;14.40;;;9.00;;
55497;SDS011;41357;52.806;18.268;2023-04-15T12:36:02;23.38;;;11.60;;
55497;SDS011;41357;52.806;18.268;2023-04-15T12:38:29;14.85;;;8.65;;
55497;SDS011;41357;52.806;18.268;2023-04-15T12:40:56;14.73;;;8.75;;
55497;SDS011;41357;52.806;18.268;2023-04-15T12:43:22;15.52;;;9.90;;
55497;SDS011;41357;52.806;18.268;2023-04-15T12:45:48;15.48;;;9.70;;
55497;SDS011;41357;52.806;18.268;2023-04-15T12:48:15;16.45;;;10.00;;
55497;SDS011;41357;52.806;18.268;2023-04-15T12:50:41;11.75;;;7.63;;
55497;SDS011;41357;52.806;18.268;2023-04-15T12:53:07;12.60;;;8.27;;
55497;SDS011;41357;52.806;18.268;2023-04-15T12:55:33;11.68;;;7.50;;
55497;SDS011;41357;52.806;18.268;2023-04-15T12:57:59;13.68;;;8.63;;
55497;SDS011;41357;52.806;18.268;2023-04-15T13:00:25;11.52;;;7.68;;
55497;SDS011;41357;52.806;18.268;2023-04-15T13:02:52;13.93;;;9.00;;
55497;SDS011;41357;52.806;18.268;2023-04-15T13:05:18;19.05;;;9.50;;
55497;SDS011;41357;52.806;18.268;2023-04-15T13:07:45;20.98;;;11.38;;
55497;SDS011;41357;52.806;18.268;2023-04-15T13:10:11;19.40;;;10.10;;
55497;SDS011;41357;52.806;18.268;2023-04-15T13:12:37;14.52;;;8.60;;
55497;SDS011;41357;52.806;18.268;2023-04-15T13:15:03;13.25;;;7.32;;
55497;SDS011;41357;52.806;18.268;2023-04-15T13:17:29;10.77;;;7.05;;
55497;SDS011;41357;52.806;18.268;2023-04-15T13:19:55;12.20;;;7.50;;
55497;SDS011;41357;52.806;18.268;2023-04-15T13:22:22;10.60;;;7.85;;
55497;SDS011;41357;52.806;18.268;2023-04-15T13:24:48;11.73;;;7.70;;
55497;SDS011;41357;52.806;18.268;2023-04-15T13:27:15;8.70;;;6.55;;
55497;SDS011;41357;52.806;18.268;2023-04-15T13:29:41;13.43;;;7.80;;
55497;SDS011;41357;52.806;18.268;2023-04-15T13:32:07;11.27;;;6.80;;
55497;SDS011;41357;52.806;18.268;2023-04-15T13:34:33;9.90;;;6.63;;
55497;SDS011;41357;52.806;18.268;2023-04-15T13:37:05;11.35;;;7.25;;
55497;SDS011;41357;52.806;18.268;2023-04-15T13:39:31;10.70;;;6.95;;
55497;SDS011;41357;52.806;18.268;2023-04-15T13:41:57;9.10;;;6.47;;
55497;SDS011;41357;52.806;18.268;2023-04-15T13:44:23;8.60;;;5.97;;
55497;SDS011;41357;52.806;18.268;2023-04-15T13:46:49;10.43;;;6.18;;
55497;SDS011;41357;52.806;18.268;2023-04-15T13:49:16;9.98;;;6.57;;
55497;SDS011;41357;52.806;18.268;2023-04-15T13:51:42;10.35;;;6.55;;
55497;SDS011;41357;52.806;18.268;2023-04-15T13:54:08;13.07;;;5.60;;
55497;SDS011;41357;52.806;18.268;2023-04-15T13:56:34;9.00;;;6.55;;
55497;SDS011;41357;52.806;18.268;2023-04-15T13:59:00;9.90;;;6.22;;
55497;SDS011;41357;52.806;18.268;2023-04-15T14:01:27;10.02;;;6.90;;
55497;SDS011;41357;52.806;18.268;2023-04-15T14:03:54;11.23;;;7.47;;
55497;SDS011;41357;52.806;18.268;2023-04-15T14:06:20;9.80;;;7.10;;
55497;SDS011;41357;52.806;18.268;2023-04-15T14:08:46;10.38;;;6.65;;
55497;SDS011;41357;52.806;18.268;2023-04-15T14:11:12;13.77;;;6.57;;
55497;SDS011;41357;52.806;18.268;2023-04-15T14:13:38;10.63;;;7.00;;
55497;SDS011;41357;52.806;18.268;2023-04-15T14:16:05;11.60;;;7.13;;
55497;SDS011;41357;52.806;18.268;2023-04-15T14:18:31;10.07;;;6.85;;
55497;SDS011;41357;52.806;18.268;2023-04-15T14:20:58;10.38;;;7.00;;
55497;SDS011;41357;52.806;18.268;2023-04-15T14:23:24;11.45;;;6.95;;
55497;SDS011;41357;52.806;18.268;2023-04-15T14:25:50;12.52;;;7.38;;
55497;SDS011;41357;52.806;18.268;2023-04-15T14:28:16;10.55;;;7.60;;